^^
No Wait Weather (KNEBELLE1) Station Historical Data
Daily Summary for May 31, 2019 Units:  English    Metric   Both
Daily Weekly Monthly Yearly Custom
  High: Low: Average:
Temperature: 84 °F 55.3 °F 70 °F
Dew Point: 62.47 °F 49.56 °F 56.3 °F
Humidity: 98% 31% 67%
Wind Speed: 5mph 0mph 0.2mph
Wind Gust: 10mph - -
Wind- - SSW
Pressure: 29.80 in 29.69 in -
Precipitation: 0 in    
Historical Graphs
 
 
Tabular Data for May 31, 2019
Time Temperature Dew Point Pressure Wind Wind Speed Wind Gust Humidity Rainfall Rate (Hourly) solar
00:04 59.9 °F 58.75 °F 29.75 in Calm     96% 0 in WeatherCatV3.04B91 W/m2
00:09 59.8 °F 58.65 °F 29.75 in Calm     96% 0 in WeatherCatV3.04B91 W/m2
00:14 59.6 °F 58.46 °F 29.74 in Calm     96% 0 in WeatherCatV3.04B91 W/m2
00:19 59.5 °F 58.36 °F 29.74 in Calm     96% 0 in WeatherCatV3.04B91 W/m2
00:24 59.3 °F 58.16 °F 29.74 in Calm     96% 0 in WeatherCatV3.04B91 W/m2
00:29 59.5 °F 58.65 °F 29.74 in Calm     97% 0 in WeatherCatV3.04B91 W/m2
00:34 59.6 °F 58.75 °F 29.75 in Calm     97% 0 in WeatherCatV3.04B91 W/m2
00:39 59.6 °F 58.75 °F 29.75 in Calm     97% 0 in WeatherCatV3.04B91 W/m2
00:44 59.5 °F 58.36 °F 29.75 in Calm     96% 0 in WeatherCatV3.04B91 W/m2
00:49 59.2 °F 58.35 °F 29.75 in Calm     97% 0 in WeatherCatV3.04B91 W/m2
00:54 59 °F 58.15 °F 29.75 in Calm     97% 0 in WeatherCatV3.04B91 W/m2
00:59 58.9 °F 58.05 °F 29.75 in Calm     97% 0 in WeatherCatV3.04B91 W/m2
01:04 58.7 °F 57.85 °F 29.74 in Calm     97% 0 in WeatherCatV3.04B91 W/m2
01:09 58.6 °F 57.75 °F 29.74 in Calm     97% 0 in WeatherCatV3.04B91 W/m2
01:14 58.4 °F 57.55 °F 29.74 in Calm     97% 0 in WeatherCatV3.04B91 W/m2
01:19 58.3 °F 57.45 °F 29.75 in Calm     97% 0 in WeatherCatV3.04B91 W/m2
01:24 58.3 °F 57.45 °F 29.75 in Calm     97% 0 in WeatherCatV3.04B91 W/m2
01:29 58.3 °F 57.45 °F 29.75 in Calm     97% 0 in WeatherCatV3.04B91 W/m2
01:34 58.1 °F 57.25 °F 29.75 in Calm     97% 0 in WeatherCatV3.04B91 W/m2
01:39 58 °F 57.15 °F 29.75 in Calm     97% 0 in WeatherCatV3.04B91 W/m2
01:44 58 °F 57.15 °F 29.75 in Calm     97% 0 in WeatherCatV3.04B91 W/m2
01:49 57.8 °F 56.95 °F 29.75 in Calm     97% 0 in WeatherCatV3.04B91 W/m2
01:54 57.6 °F 56.75 °F 29.75 in Calm     97% 0 in WeatherCatV3.04B91 W/m2
01:59 57.6 °F 56.75 °F 29.74 in Calm     97% 0 in WeatherCatV3.04B91 W/m2
02:04 57.6 °F 56.75 °F 29.74 in Calm     97% 0 in WeatherCatV3.04B91 W/m2
02:09 57.6 °F 56.75 °F 29.74 in Calm     97% 0 in WeatherCatV3.04B91 W/m2
02:14 57.6 °F 56.75 °F 29.74 in Calm     97% 0 in WeatherCatV3.04B91 W/m2
02:19 57.6 °F 56.75 °F 29.74 in Calm     97% 0 in WeatherCatV3.04B91 W/m2
02:24 57.5 °F 56.65 °F 29.74 in Calm     97% 0 in WeatherCatV3.04B91 W/m2
02:29 57.5 °F 56.65 °F 29.74 in Calm     97% 0 in WeatherCatV3.04B91 W/m2
02:34 57.3 °F 56.45 °F 29.74 in Calm     97% 0 in WeatherCatV3.04B91 W/m2
02:39 57.2 °F 56.35 °F 29.74 in Calm     97% 0 in WeatherCatV3.04B91 W/m2
02:44 57 °F 56.16 °F 29.74 in Calm     97% 0 in WeatherCatV3.04B91 W/m2
02:49 56.9 °F 56.06 °F 29.74 in Calm     97% 0 in WeatherCatV3.04B91 W/m2
02:54 56.7 °F 55.86 °F 29.74 in Calm     97% 0 in WeatherCatV3.04B91 W/m2
02:59 56.6 °F 55.76 °F 29.74 in Calm     97% 0 in WeatherCatV3.04B91 W/m2
03:04 56.6 °F 55.76 °F 29.74 in Calm     97% 0 in WeatherCatV3.04B91 W/m2
03:09 56.5 °F 55.66 °F 29.74 in Calm     97% 0 in WeatherCatV3.04B91 W/m2
03:14 56.5 °F 55.94 °F 29.74 in Calm     98% 0 in WeatherCatV3.04B91 W/m2
03:19 56.5 °F 55.66 °F 29.75 in Calm     97% 0 in WeatherCatV3.04B91 W/m2
03:24 56.5 °F 55.66 °F 29.75 in Calm     97% 0 in WeatherCatV3.04B91 W/m2
03:29 56.3 °F 55.46 °F 29.75 in Calm     97% 0 in WeatherCatV3.04B91 W/m2
03:34 56.3 °F 55.46 °F 29.75 in Calm     97% 0 in WeatherCatV3.04B91 W/m2
03:39 56.2 °F 55.36 °F 29.75 in Calm     97% 0 in WeatherCatV3.04B91 W/m2
03:44 56 °F 55.44 °F 29.75 in Calm     98% 0 in WeatherCatV3.04B91 W/m2
03:49 56 °F 55.44 °F 29.75 in Calm     98% 0 in WeatherCatV3.04B91 W/m2
03:54 55.9 °F 55.34 °F 29.75 in Calm     98% 0 in WeatherCatV3.04B91 W/m2
03:59 55.9 °F 55.34 °F 29.75 in Calm     98% 0 in WeatherCatV3.04B91 W/m2
04:04 56 °F 55.44 °F 29.75 in Calm     98% 0 in WeatherCatV3.04B91 W/m2
04:09 55.9 °F 55.34 °F 29.75 in Calm     98% 0 in WeatherCatV3.04B91 W/m2
04:14 55.9 °F 55.34 °F 29.75 in Calm     98% 0 in WeatherCatV3.04B91 W/m2
04:19 55.9 °F 55.34 °F 29.77 in Calm     98% 0 in WeatherCatV3.04B91 W/m2
04:24 55.7 °F 55.14 °F 29.77 in Calm     98% 0 in WeatherCatV3.04B91 W/m2
04:29 55.7 °F 55.14 °F 29.77 in Calm     98% 0 in WeatherCatV3.04B91 W/m2
04:34 56 °F 55.44 °F 29.77 in Calm     98% 0 in WeatherCatV3.04B91 W/m2
04:39 56.3 °F 55.74 °F 29.77 in Calm     98% 0 in WeatherCatV3.04B91 W/m2
04:44 56.2 °F 55.64 °F 29.77 in Calm     98% 0 in WeatherCatV3.04B91 W/m2
04:49 56.2 °F 55.64 °F 29.77 in Calm     98% 0 in WeatherCatV3.04B91 W/m2
04:54 56.3 °F 55.74 °F 29.77 in Calm     98% 0 in WeatherCatV3.04B91 W/m2
04:59 56.3 °F 55.74 °F 29.77 in Calm     98% 0 in WeatherCatV3.04B91 W/m2
05:04 56.3 °F 55.74 °F 29.78 in Calm     98% 0 in WeatherCatV3.04B91 W/m2
05:09 56.3 °F 55.74 °F 29.78 in Calm     98% 0 in WeatherCatV3.04B91 W/m2
05:14 56.3 °F 55.46 °F 29.78 in Calm     97% 0 in WeatherCatV3.04B91 W/m2
05:19 56.2 °F 55.36 °F 29.79 in Calm     97% 0 in WeatherCatV3.04B91 W/m2
05:24 56 °F 55.16 °F 29.79 in Calm     97% 0 in WeatherCatV3.04B91 W/m2
05:29 55.9 °F 55.06 °F 29.79 in Calm     97% 0 in WeatherCatV3.04B91 W/m2
05:34 55.7 °F 54.86 °F 29.79 in Calm     97% 0 in WeatherCatV3.04B91 W/m2
05:39 55.6 °F 54.76 °F 29.79 in Calm     97% 0 in WeatherCatV3.04B91 W/m2
05:44 55.4 °F 54.56 °F 29.79 in Calm     97% 0 in WeatherCatV3.04B91 W/m2
05:49 55.3 °F 54.46 °F 29.79 in Calm     97% 0 in WeatherCatV3.04B91 W/m2
05:54 55.3 °F 54.46 °F 29.79 in Calm     97% 0 in WeatherCatV3.04B91 W/m2
05:59 55.3 °F 54.46 °F 29.79 in Calm     97% 0 in WeatherCatV3.04B91 W/m2
06:04 55.3 °F 54.46 °F 29.79 in Calm     97% 0 in WeatherCatV3.04B91 W/m2
06:09 55.4 °F 54.56 °F 29.79 in Calm     97% 0 in WeatherCatV3.04B91 W/m2
06:14 55.6 °F 54.76 °F 29.79 in Calm     97% 0 in WeatherCatV3.04B91 W/m2
06:19 55.7 °F 54.86 °F 29.79 in Calm     97% 0 in WeatherCatV3.04B91 W/m2
06:24 55.9 °F 55.06 °F 29.79 in Calm     97% 0 in WeatherCatV3.04B91 W/m2
06:29 55.7 °F 54.86 °F 29.80 in Calm     97% 0 in WeatherCatV3.04B91 W/m2
06:34 55.7 °F 54.86 °F 29.80 in Calm     97% 0 in WeatherCatV3.04B91 W/m2
06:39 55.7 °F 54.86 °F 29.80 in Calm     97% 0 in WeatherCatV3.04B91 W/m2
06:44 55.6 °F 54.76 °F 29.80 in Calm     97% 0 in WeatherCatV3.04B91 W/m2
06:49 55.7 °F 54.86 °F 29.80 in Calm     97% 0 in WeatherCatV3.04B91 W/m2
06:54 55.7 °F 54.86 °F 29.80 in Calm     97% 0 in WeatherCatV3.04B91 W/m2
06:59 56 °F 55.16 °F 29.80 in Calm     97% 0 in WeatherCatV3.04B91 W/m2
07:04 56.2 °F 55.36 °F 29.80 in Calm     97% 0 in WeatherCatV3.04B91 W/m2
07:09 56.3 °F 55.46 °F 29.80 in Calm     97% 0 in WeatherCatV3.04B91 W/m2
07:14 56.6 °F 55.76 °F 29.80 in Calm     97% 0 in WeatherCatV3.04B91 W/m2
07:19 56.9 °F 56.06 °F 29.80 in Calm     97% 0 in WeatherCatV3.04B91 W/m2
07:24 57.2 °F 56.35 °F 29.80 in Calm     97% 0 in WeatherCatV3.04B91 W/m2
07:29 57.5 °F 56.65 °F 29.80 in Calm     97% 0 in WeatherCatV3.04B91 W/m2
07:34 57.8 °F 56.95 °F 29.80 in Calm     97% 0 in WeatherCatV3.04B91 W/m2
07:39 58.1 °F 57.25 °F 29.80 in Calm     97% 0 in WeatherCatV3.04B91 W/m2
07:44 58.4 °F 57.26 °F 29.80 in Calm     96% 0 in WeatherCatV3.04B91 W/m2
07:49 58.7 °F 57.56 °F 29.80 in Calm     96% 0 in WeatherCatV3.04B91 W/m2
07:54 59 °F 57.86 °F 29.80 in Calm     96% 0 in WeatherCatV3.04B91 W/m2
07:59 59.2 °F 58.06 °F 29.80 in Calm     96% 0 in WeatherCatV3.04B91 W/m2
08:04 59.5 °F 58.36 °F 29.80 in Calm     96% 0 in WeatherCatV3.04B91 W/m2
08:09 59.8 °F 58.65 °F 29.80 in Calm     96% 0 in WeatherCatV3.04B91 W/m2
08:14 60.2 °F 59.05 °F 29.80 in Calm     96% 0 in WeatherCatV3.04B91 W/m2
08:19 61 °F 59.85 °F 29.80 in Calm     96% 0 in WeatherCatV3.04B91 W/m2
08:24 61.6 °F 60.15 °F 29.80 in Calm     95% 0 in WeatherCatV3.04B91 W/m2
08:29 62 °F 60.25 °F 29.80 in Calm     94% 0 in WeatherCatV3.04B91 W/m2
08:34 62.4 °F 60.65 °F 29.80 in Calm     94% 0 in WeatherCatV3.04B91 W/m2
08:39 62.9 °F 60.84 °F 29.80 in Calm     93% 0 in WeatherCatV3.04B91 W/m2
08:44 63.4 °F 60.72 °F 29.80 in Calm     91% 0 in WeatherCatV3.04B91 W/m2
08:49 63.9 °F 60.9 °F 29.80 in Calm     90% 0 in WeatherCatV3.04B91 W/m2
08:54 64.5 °F 61.18 °F 29.80 in Calm     89% 0 in WeatherCatV3.04B91 W/m2
08:59 65.3 °F 61.65 °F 29.80 in Calm     88% 0 in WeatherCatV3.04B91 W/m2
09:04 65.6 °F 61.29 °F 29.80 in Calm     86% 0 in WeatherCatV3.04B91 W/m2
09:09 66.1 °F 61.45 °F 29.80 in Calm     85% 0 in WeatherCatV3.04B91 W/m2
09:14 66.3 °F 60.97 °F 29.80 in Calm     83% 0 in WeatherCatV3.04B91 W/m2
09:19 66.3 °F 59.94 °F 29.80 in Calm     80% 0 in WeatherCatV3.04B91 W/m2
09:24 66.8 °F 60.07 °F 29.80 in Calm     79% 0 in WeatherCatV3.04B91 W/m2
09:29 67.1 °F 59.64 °F 29.80 in Calm     77% 0 in WeatherCatV3.04B91 W/m2
09:34 67.4 °F 59.56 °F 29.80 in Calm     76% 0 in WeatherCatV3.04B91 W/m2
09:39 67.8 °F 59.95 °F 29.80 in Calm     76% 0 in WeatherCatV3.04B91 W/m2
09:44 68.1 °F 59.49 °F 29.80 in Calm   3 mph 74% 0 in WeatherCatV3.04B91 W/m2
09:49 68.4 °F 59.78 °F 29.80 in Calm     74% 0 in WeatherCatV3.04B91 W/m2
09:54 68.9 °F 59.88 °F 29.80 in Calm   1 mph 73% 0 in WeatherCatV3.04B91 W/m2
09:59 69.4 °F 59.97 °F 29.79 in Calm     72% 0 in WeatherCatV3.04B91 W/m2
10:04 70.1 °F 60.64 °F 29.79 in Calm     72% 0 in WeatherCatV3.04B91 W/m2
10:09 70.8 °F 62.47 °F 29.79 in Calm     75% 0 in WeatherCatV3.04B91 W/m2
10:14 71.1 °F 61.6 °F 29.79 in Calm     72% 0 in WeatherCatV3.04B91 W/m2
10:19 71.3 °F 61 °F 29.79 in Calm     70% 0 in WeatherCatV3.04B91 W/m2
10:24 71.8 °F 60.24 °F 29.79 in Calm     67% 0 in WeatherCatV3.04B91 W/m2
10:29 72.3 °F 61.13 °F 29.79 in Calm   3 mph 68% 0 in WeatherCatV3.04B91 W/m2
10:34 72.7 °F 61.09 °F 29.79 in Calm     67% 0 in WeatherCatV3.04B91 W/m2
10:39 73.2 °F 61.57 °F 29.79 in Calm     67% 0 in WeatherCatV3.04B91 W/m2
10:44 73.7 °F 61.19 °F 29.77 in Calm     65% 0 in WeatherCatV3.04B91 W/m2
10:49 74 °F 61.47 °F 29.77 in Calm     65% 0 in WeatherCatV3.04B91 W/m2
10:53 74.4 °F 60.97 °F 29.77 in Calm     63% 0 in WeatherCatV3.04B91 W/m2
11:04 75.3 °F 62.26 °F 29.78 in Calm     64% 0 in WeatherCatV3.04B91 W/m2
11:09 75.4 °F 60.53 °F 29.78 in Calm     60% 0 in WeatherCatV3.04B91 W/m2
11:14 75.6 °F 60.24 °F 29.78 in Calm     59% 0 in WeatherCatV3.04B91 W/m2
11:19 75.8 °F 61.37 °F 29.79 in SSE 1 mph 3 mph 61% 0 in WeatherCatV3.04B91 W/m2
11:24 76.1 °F 61.65 °F 29.79 in Calm     61% 0 in WeatherCatV3.04B91 W/m2
11:29 76.3 °F 59.43 °F 29.79 in Calm   3 mph 56% 0 in WeatherCatV3.04B91 W/m2
11:34 76.7 °F 59.3 °F 29.79 in Calm     55% 0 in WeatherCatV3.04B91 W/m2
11:39 77 °F 60.08 °F 29.79 in Calm   2 mph 56% 0 in WeatherCatV3.04B91 W/m2
11:44 77.2 °F 59.24 °F 29.79 in Calm   4 mph 54% 0 in WeatherCatV3.04B91 W/m2
11:49 77.6 °F 58.56 °F 29.79 in Calm     52% 0 in WeatherCatV3.04B91 W/m2
11:54 77.7 °F 57.56 °F 29.79 in Calm   4 mph 50% 0 in WeatherCatV3.04B91 W/m2
11:59 77.9 °F 57.74 °F 29.79 in Calm     50% 0 in WeatherCatV3.04B91 W/m2
12:04 77.9 °F 57.18 °F 29.79 in Calm     49% 0 in WeatherCatV3.04B91 W/m2
12:09 78.1 °F 56.79 °F 29.79 in Calm   2 mph 48% 0 in WeatherCatV3.04B91 W/m2
12:14 78.3 °F 56.39 °F 29.79 in Calm   2 mph 47% 0 in WeatherCatV3.04B91 W/m2
12:19 78.5 °F 57.15 °F 29.79 in Calm     48% 0 in WeatherCatV3.04B91 W/m2
12:24 78.6 °F 57.24 °F 29.79 in Calm   3 mph 48% 0 in WeatherCatV3.04B91 W/m2
12:29 79 °F 58.18 °F 29.79 in Calm     49% 0 in WeatherCatV3.04B91 W/m2
12:34 79.4 °F 59.11 °F 29.78 in Calm     50% 0 in WeatherCatV3.04B91 W/m2
12:39 79.8 °F 58.34 °F 29.78 in Calm     48% 0 in WeatherCatV3.04B91 W/m2
12:44 80.1 °F 58.02 °F 29.78 in Calm   3 mph 47% 0 in WeatherCatV3.04B91 W/m2
12:49 80.1 °F 56.81 °F 29.78 in WSW 2 mph 2 mph 45% 0 in WeatherCatV3.04B91 W/m2
12:54 80.1 °F 54.91 °F 29.78 in Calm   2 mph 42% 0 in WeatherCatV3.04B91 W/m2
12:59 80.3 °F 55.74 °F 29.78 in Calm   2 mph 43% 0 in WeatherCatV3.04B91 W/m2
13:04 80.5 °F 57.18 °F 29.77 in Calm     45% 0 in WeatherCatV3.04B91 W/m2
13:09 81.1 °F 56.46 °F 29.77 in SW 1 mph 3 mph 43% 0 in WeatherCatV3.04B91 W/m2
13:14 81.2 °F 55.9 °F 29.77 in Calm   4 mph 42% 0 in WeatherCatV3.04B91 W/m2
13:19 81.6 °F 56.25 °F 29.77 in Calm   7 mph 42% 0 in WeatherCatV3.04B91 W/m2
13:24 81.6 °F 55.59 °F 29.77 in Calm     41% 0 in WeatherCatV3.04B91 W/m2
13:29 81.6 °F 56.25 °F 29.77 in Calm   2 mph 42% 0 in WeatherCatV3.04B91 W/m2
13:34 81.6 °F 54.91 °F 29.77 in Calm   3 mph 40% 0 in WeatherCatV3.04B91 W/m2
13:39 81.6 °F 55.59 °F 29.77 in SSW 1 mph 2 mph 41% 0 in WeatherCatV3.04B91 W/m2
13:44 81.4 °F 52.6 °F 29.77 in Calm   10 mph 37% 0 in WeatherCatV3.04B91 W/m2
13:49 81.6 °F 53.5 °F 29.77 in Calm   5 mph 38% 0 in WeatherCatV3.04B91 W/m2
13:54 82.2 °F 56.13 °F 29.77 in Calm   2 mph 41% 0 in WeatherCatV3.04B91 W/m2
13:59 82.6 °F 54.39 °F 29.76 in Calm   1 mph 38% 0 in WeatherCatV3.04B91 W/m2
14:04 83 °F 54.01 °F 29.76 in SSW 1 mph 1 mph 37% 0 in WeatherCatV3.04B91 W/m2
14:09 83.2 °F 54.19 °F 29.76 in Calm   4 mph 37% 0 in WeatherCatV3.04B91 W/m2
14:14 83.2 °F 54.92 °F 29.76 in Calm     38% 0 in WeatherCatV3.04B91 W/m2
14:19 83.6 °F 56.69 °F 29.76 in Calm     40% 0 in WeatherCatV3.04B91 W/m2
14:24 83.8 °F 54.72 °F 29.76 in SSW 3 mph 6 mph 37% 0 in WeatherCatV3.04B91 W/m2
14:29 83.8 °F 53.2 °F 29.76 in Calm   3 mph 35% 0 in WeatherCatV3.04B91 W/m2
14:34 83.8 °F 54.72 °F 29.75 in Calm   4 mph 37% 0 in WeatherCatV3.04B91 W/m2
14:39 83.6 °F 53.02 °F 29.75 in Calm   5 mph 35% 0 in WeatherCatV3.04B91 W/m2
14:44 83.4 °F 53.61 °F 29.75 in Calm   1 mph 36% 0 in WeatherCatV3.04B91 W/m2
14:49 83.2 °F 54.19 °F 29.75 in SW 2 mph 2 mph 37% 0 in WeatherCatV3.04B91 W/m2
14:54 83.2 °F 54.92 °F 29.75 in Calm   4 mph 38% 0 in WeatherCatV3.04B91 W/m2
14:59 83.2 °F 51.88 °F 29.75 in Calm   7 mph 34% 0 in WeatherCatV3.04B91 W/m2
15:04 83.2 °F 54.19 °F 29.75 in SSW 1 mph 4 mph 37% 0 in WeatherCatV3.04B91 W/m2
15:09 83.2 °F 54.19 °F 29.75 in Calm     37% 0 in WeatherCatV3.04B91 W/m2
15:14 83.2 °F 53.44 °F 29.75 in Calm   2 mph 36% 0 in WeatherCatV3.04B91 W/m2
15:19 83.2 °F 53.44 °F 29.75 in Calm   2 mph 36% 0 in WeatherCatV3.04B91 W/m2
15:24 83.2 °F 52.67 °F 29.75 in SSW 5 mph 6 mph 35% 0 in WeatherCatV3.04B91 W/m2
15:29 83 °F 52.49 °F 29.75 in Calm   5 mph 35% 0 in WeatherCatV3.04B91 W/m2
15:34 82.6 °F 51.36 °F 29.75 in Calm   4 mph 34% 0 in WeatherCatV3.04B91 W/m2
15:39 82.6 °F 52.91 °F 29.75 in Calm   2 mph 36% 0 in WeatherCatV3.04B91 W/m2
15:44 82.6 °F 52.91 °F 29.75 in Calm   4 mph 36% 0 in WeatherCatV3.04B91 W/m2
15:49 82.8 °F 50.73 °F 29.74 in Calm   2 mph 33% 0 in WeatherCatV3.04B91 W/m2
15:54 83.2 °F 51.07 °F 29.74 in Calm   3 mph 33% 0 in WeatherCatV3.04B91 W/m2
15:59 83.4 °F 49.56 °F 29.74 in SSW 2 mph 5 mph 31% 0 in WeatherCatV3.04B91 W/m2
16:04 83.4 °F 50.42 °F 29.74 in South 4 mph 4 mph 32% 0 in WeatherCatV3.04B91 W/m2
16:09 83.6 °F 52.23 °F 29.74 in South 1 mph 2 mph 34% 0 in WeatherCatV3.04B91 W/m2
16:14 84 °F 54.14 °F 29.73 in Calm   1 mph 36% 0 in WeatherCatV3.04B91 W/m2
16:19 84 °F 52.58 °F 29.73 in SW 4 mph 6 mph 34% 0 in WeatherCatV3.04B91 W/m2
16:24 83.8 °F 53.97 °F 29.73 in SW 3 mph 5 mph 36% 0 in WeatherCatV3.04B91 W/m2
16:29 83.6 °F 54.54 °F 29.73 in Calm   7 mph 37% 0 in WeatherCatV3.04B91 W/m2
16:34 83.6 °F 51.42 °F 29.72 in SW 3 mph 4 mph 33% 0 in WeatherCatV3.04B91 W/m2
16:39 83.4 °F 51.25 °F 29.72 in SSW 1 mph 4 mph 33% 0 in WeatherCatV3.04B91 W/m2
16:44 83.2 °F 52.67 °F 29.72 in Calm   2 mph 35% 0 in WeatherCatV3.04B91 W/m2
16:49 83 °F 51.71 °F 29.72 in Calm   2 mph 34% 0 in WeatherCatV3.04B91 W/m2
16:54 82.8 °F 52.32 °F 29.72 in Calm   1 mph 35% 0 in WeatherCatV3.04B91 W/m2
16:59 82.8 °F 53.09 °F 29.72 in Calm     36% 0 in WeatherCatV3.04B91 W/m2
17:04 82.6 °F 53.66 °F 29.72 in SSW 4 mph 4 mph 37% 0 in WeatherCatV3.04B91 W/m2
17:09 82.4 °F 53.48 °F 29.72 in Calm   2 mph 37% 0 in WeatherCatV3.04B91 W/m2
17:14 82.4 °F 53.48 °F 29.72 in Calm   2 mph 37% 0 in WeatherCatV3.04B91 W/m2
17:19 82.2 °F 53.31 °F 29.72 in Calm   4 mph 37% 0 in WeatherCatV3.04B91 W/m2
17:24 82.4 °F 54.92 °F 29.72 in Calm     39% 0 in WeatherCatV3.04B91 W/m2
17:29 82.2 °F 53.31 °F 29.72 in Calm   4 mph 37% 0 in WeatherCatV3.04B91 W/m2
17:34 82.2 °F 53.31 °F 29.72 in Calm   3 mph 37% 0 in WeatherCatV3.04B91 W/m2
17:39 82 °F 53.86 °F 29.72 in Calm   2 mph 38% 0 in WeatherCatV3.04B91 W/m2
17:44 81.6 °F 54.21 °F 29.72 in SW 4 mph 5 mph 39% 0 in WeatherCatV3.04B91 W/m2
17:49 81.6 °F 56.91 °F 29.72 in Calm   3 mph 43% 0 in WeatherCatV3.04B91 W/m2
17:54 81.4 °F 54.73 °F 29.72 in Calm   4 mph 40% 0 in WeatherCatV3.04B91 W/m2
17:59 81.2 °F 55.23 °F 29.72 in SSW 2 mph 4 mph 41% 0 in WeatherCatV3.04B91 W/m2
18:04 81.1 °F 55.81 °F 29.71 in Calm   6 mph 42% 0 in WeatherCatV3.04B91 W/m2
18:09 81.1 °F 55.81 °F 29.71 in Calm   4 mph 42% 0 in WeatherCatV3.04B91 W/m2
18:14 80.9 °F 55.63 °F 29.71 in Calm   3 mph 42% 0 in WeatherCatV3.04B91 W/m2
18:19 80.9 °F 56.28 °F 29.71 in Calm   1 mph 43% 0 in WeatherCatV3.04B91 W/m2
18:24 80.9 °F 56.28 °F 29.71 in Calm   1 mph 43% 0 in WeatherCatV3.04B91 W/m2
18:29 80.7 °F 55.45 °F 29.71 in Calm   1 mph 42% 0 in WeatherCatV3.04B91 W/m2
18:34 80.7 °F 55.45 °F 29.70 in Calm     42% 0 in WeatherCatV3.04B91 W/m2
18:39 80.9 °F 56.91 °F 29.70 in Calm     44% 0 in WeatherCatV3.04B91 W/m2
18:44 80.9 °F 55.63 °F 29.70 in SW 2 mph 5 mph 42% 0 in WeatherCatV3.04B91 W/m2
18:49 80.9 °F 56.28 °F 29.70 in SW 1 mph 1 mph 43% 0 in WeatherCatV3.04B91 W/m2
18:54 80.9 °F 54.96 °F 29.70 in SSW 1 mph 4 mph 41% 0 in WeatherCatV3.04B91 W/m2
18:59 80.9 °F 55.63 °F 29.69 in Calm   1 mph 42% 0 in WeatherCatV3.04B91 W/m2
19:04 80.9 °F 55.63 °F 29.69 in Calm   4 mph 42% 0 in WeatherCatV3.04B91 W/m2
19:09 80.9 °F 54.29 °F 29.69 in Calm     40% 0 in WeatherCatV3.04B91 W/m2
19:14 80.7 °F 53.41 °F 29.69 in Calm   1 mph 39% 0 in WeatherCatV3.04B91 W/m2
19:19 80.5 °F 53.24 °F 29.69 in Calm   2 mph 39% 0 in WeatherCatV3.04B91 W/m2
19:24 80.5 °F 53.24 °F 29.69 in Calm   1 mph 39% 0 in WeatherCatV3.04B91 W/m2
19:29 80.3 °F 54.43 °F 29.69 in Calm     41% 0 in WeatherCatV3.04B91 W/m2
19:34 80.1 °F 54.25 °F 29.69 in Calm     41% 0 in WeatherCatV3.04B91 W/m2
19:39 79.9 °F 54.07 °F 29.69 in Calm     41% 0 in WeatherCatV3.04B91 W/m2
19:44 79.6 °F 53.8 °F 29.69 in SW 1 mph 1 mph 41% 0 in WeatherCatV3.04B91 W/m2
19:49 79.4 °F 53.62 °F 29.69 in Calm     41% 0 in WeatherCatV3.04B91 W/m2
19:54 79.2 °F 54.1 °F 29.69 in Calm   1 mph 42% 0 in WeatherCatV3.04B91 W/m2
19:59 79 °F 54.57 °F 29.69 in Calm     43% 0 in WeatherCatV3.04B91 W/m2
20:04 78.6 °F 54.84 °F 29.69 in Calm     44% 0 in WeatherCatV3.04B91 W/m2
20:09 78.5 °F 54.75 °F 29.69 in Calm     44% 0 in WeatherCatV3.04B91 W/m2
20:14 78.1 °F 55.01 °F 29.69 in Calm     45% 0 in WeatherCatV3.04B91 W/m2
20:19 77.9 °F 54.82 °F 29.69 in Calm     45% 0 in WeatherCatV3.04B91 W/m2
20:24 77.6 °F 55.16 °F 29.69 in Calm     46% 0 in WeatherCatV3.04B91 W/m2
20:29 77.2 °F 55.39 °F 29.69 in Calm     47% 0 in WeatherCatV3.04B91 W/m2
20:34 76.8 °F 55.02 °F 29.69 in Calm   1 mph 47% 0 in WeatherCatV3.04B91 W/m2
20:39 76.5 °F 55.33 °F 29.69 in Calm     48% 0 in WeatherCatV3.04B91 W/m2
20:44 76.3 °F 55.15 °F 29.69 in Calm     48% 0 in WeatherCatV3.04B91 W/m2
20:49 76 °F 55.44 °F 29.69 in Calm     49% 0 in WeatherCatV3.04B91 W/m2
20:54 75.6 °F 55.07 °F 29.69 in Calm     49% 0 in WeatherCatV3.04B91 W/m2
20:59 75.3 °F 55.36 °F 29.69 in Calm     50% 0 in WeatherCatV3.04B91 W/m2
21:04 75.1 °F 55.17 °F 29.69 in Calm     50% 0 in WeatherCatV3.04B91 W/m2
21:09 74.9 °F 55.53 °F 29.69 in Calm     51% 0 in WeatherCatV3.04B91 W/m2
21:14 74.6 °F 55.26 °F 29.69 in Calm     51% 0 in WeatherCatV3.04B91 W/m2
21:19 74.4 °F 55.61 °F 29.69 in Calm     52% 0 in WeatherCatV3.04B91 W/m2
21:24 74 °F 55.77 °F 29.69 in Calm     53% 0 in WeatherCatV3.04B91 W/m2
21:29 73.9 °F 55.67 °F 29.69 in Calm     53% 0 in WeatherCatV3.04B91 W/m2
21:34 73.2 °F 56.05 °F 29.69 in Calm     55% 0 in WeatherCatV3.04B91 W/m2
21:39 72.7 °F 56.57 °F 29.69 in Calm     57% 0 in WeatherCatV3.04B91 W/m2
21:44 72 °F 56.87 °F 29.69 in Calm     59% 0 in WeatherCatV3.04B91 W/m2
21:49 71.6 °F 56.5 °F 29.70 in Calm     59% 0 in WeatherCatV3.04B91 W/m2
21:54 71.3 °F 56.68 °F 29.70 in Calm     60% 0 in WeatherCatV3.04B91 W/m2
21:59 70.8 °F 57.12 °F 29.70 in Calm     62% 0 in WeatherCatV3.04B91 W/m2
22:04 70.3 °F 57.1 °F 29.70 in Calm     63% 0 in WeatherCatV3.04B91 W/m2
22:09 69.9 °F 57.59 °F 29.70 in Calm     65% 0 in WeatherCatV3.04B91 W/m2
22:14 69.6 °F 57.73 °F 29.70 in Calm     66% 0 in WeatherCatV3.04B91 W/m2
22:19 69.3 °F 57.86 °F 29.70 in Calm     67% 0 in WeatherCatV3.04B91 W/m2
22:24 68.9 °F 57.48 °F 29.70 in Calm     67% 0 in WeatherCatV3.04B91 W/m2
22:29 68.8 °F 57.38 °F 29.70 in Calm     67% 0 in WeatherCatV3.04B91 W/m2
22:34 69.1 °F 56.83 °F 29.70 in Calm     65% 0 in WeatherCatV3.04B91 W/m2
22:39 69.8 °F 56.18 °F 29.70 in Calm   2 mph 62% 0 in WeatherCatV3.04B91 W/m2
22:44 70.4 °F 56.3 °F 29.70 in Calm   1 mph 61% 0 in WeatherCatV3.04B91 W/m2
22:49 70.8 °F 56.21 °F 29.70 in Calm   1 mph 60% 0 in WeatherCatV3.04B91 W/m2
22:54 71.1 °F 56.03 °F 29.70 in Calm   1 mph 59% 0 in WeatherCatV3.04B91 W/m2
22:59 71.5 °F 56.41 °F 29.70 in Calm   1 mph 59% 0 in WeatherCatV3.04B91 W/m2
23:04 71.6 °F 56.03 °F 29.70 in Calm   3 mph 58% 0 in WeatherCatV3.04B91 W/m2
23:09 71.6 °F 56.03 °F 29.70 in SW 1 mph 2 mph 58% 0 in WeatherCatV3.04B91 W/m2
23:14 71.6 °F 56.03 °F 29.69 in Calm     58% 0 in WeatherCatV3.04B91 W/m2
23:19 71.5 °F 56.41 °F 29.69 in Calm   2 mph 59% 0 in WeatherCatV3.04B91 W/m2
23:24 71.3 °F 56.22 °F 29.69 in Calm     59% 0 in WeatherCatV3.04B91 W/m2
23:29 71.3 °F 56.22 °F 29.70 in Calm   4 mph 59% 0 in WeatherCatV3.04B91 W/m2
23:34 71.1 °F 56.03 °F 29.70 in Calm   3 mph 59% 0 in WeatherCatV3.04B91 W/m2
23:39 70.9 °F 56.31 °F 29.70 in Calm     60% 0 in WeatherCatV3.04B91 W/m2
23:44 70.8 °F 56.21 °F 29.70 in Calm   1 mph 60% 0 in WeatherCatV3.04B91 W/m2
23:49 70.6 °F 56.03 °F 29.70 in Calm   3 mph 60% 0 in WeatherCatV3.04B91 W/m2
23:54 70.4 °F 56.3 °F 29.70 in Calm     61% 0 in WeatherCatV3.04B91 W/m2
23:59 70.3 °F 56.2 °F 29.70 in SW 1 mph 4 mph 61% 0 in WeatherCatV3.04B91 W/m2
Bellevue, Nebraska, USA
Compliments of Weather Underground - 3.25 mb